createdAt,value
2022-12-02T00:02:06.110Z,25.00
2022-12-02T00:04:34.509Z,22.60
2022-12-02T00:07:06.673Z,24.10
2022-12-02T00:09:36.783Z,23.00
2022-12-02T00:12:21.784Z,23.80
2022-12-02T00:15:47.078Z,20.00
2022-12-02T00:18:16.739Z,22.70
2022-12-02T00:20:45.989Z,22.80
2022-12-02T00:23:15.283Z,25.90
2022-12-02T00:25:48.786Z,24.30
2022-12-02T00:28:17.665Z,25.30
2022-12-02T00:30:45.960Z,24.00
2022-12-02T00:33:15.878Z,28.50
2022-12-02T00:35:44.216Z,28.70
2022-12-02T00:38:12.077Z,27.20
2022-12-02T00:40:39.915Z,27.60
2022-12-02T00:43:26.727Z,25.40
2022-12-02T00:46:13.458Z,25.50
2022-12-02T00:48:41.385Z,26.50
2022-12-02T00:51:09.372Z,29.70
2022-12-02T00:53:37.244Z,24.90
2022-12-02T00:56:05.469Z,26.80
2022-12-02T00:58:33.290Z,28.40
2022-12-02T01:01:01.180Z,29.30
2022-12-02T01:03:29.079Z,23.80
2022-12-02T01:05:57.090Z,24.40
2022-12-02T01:08:27.639Z,27.70
2022-12-02T01:10:57.587Z,28.70
2022-12-02T01:13:27.595Z,26.50
2022-12-02T01:15:55.902Z,22.40
2022-12-02T01:18:24.214Z,23.10
2022-12-02T01:20:52.343Z,27.40
2022-12-02T01:23:20.304Z,22.90
2022-12-02T01:25:48.782Z,25.00
2022-12-02T01:28:17.862Z,23.70
2022-12-02T01:30:46.808Z,25.30
2022-12-02T01:33:15.503Z,25.10
2022-12-02T01:35:43.420Z,24.50
2022-12-02T01:38:11.336Z,22.20
2022-12-02T01:40:39.375Z,23.90
2022-12-02T01:43:07.538Z,23.90
2022-12-02T01:45:36.178Z,25.90
2022-12-02T01:48:05.249Z,29.40
2022-12-02T01:50:33.373Z,26.10
2022-12-02T01:53:02.311Z,26.70
2022-12-02T01:55:30.331Z,22.10
2022-12-02T01:57:59.468Z,22.00
2022-12-02T02:00:29.009Z,25.20
2022-12-02T02:02:57.367Z,27.50
2022-12-02T02:05:31.475Z,23.70
2022-12-02T02:08:08.565Z,25.20
2022-12-02T02:10:40.287Z,28.30
2022-12-02T02:13:11.640Z,25.80
2022-12-02T02:15:43.285Z,23.00
2022-12-02T02:18:13.191Z,21.00
2022-12-02T02:20:42.140Z,24.90
2022-12-02T02:23:09.961Z,24.40
2022-12-02T02:25:47.898Z,24.50
2022-12-02T02:28:16.343Z,23.60
2022-12-02T02:30:45.246Z,27.70
2022-12-02T02:33:16.048Z,23.80
2022-12-02T02:35:46.468Z,23.20
2022-12-02T02:38:23.479Z,27.10
2022-12-02T02:40:54.107Z,34.40
2022-12-02T02:43:26.771Z,21.40
2022-12-02T02:45:56.334Z,19.40
2022-12-02T02:48:26.557Z,22.20
2022-12-02T02:50:55.940Z,22.50
2022-12-02T02:53:26.154Z,22.20
2022-12-02T02:55:55.380Z,22.60
2022-12-02T02:58:26.340Z,22.80
2022-12-02T03:01:11.842Z,27.70
2022-12-02T03:03:47.025Z,30.40
2022-12-02T03:06:16.357Z,26.10
2022-12-02T03:08:48.752Z,19.10
2022-12-02T03:11:16.853Z,19.50
2022-12-02T03:13:50.578Z,21.80
2022-12-02T03:16:22.802Z,20.20
2022-12-02T03:18:53.998Z,20.20
2022-12-02T03:21:24.149Z,21.40
2022-12-02T03:23:57.106Z,24.30
2022-12-02T03:26:25.239Z,28.70
2022-12-02T03:28:55.833Z,20.70
2022-12-02T03:31:25.183Z,25.40
2022-12-02T03:33:54.184Z,21.90
2022-12-02T03:36:23.150Z,22.20
2022-12-02T03:38:51.224Z,22.40
2022-12-02T03:41:20.785Z,21.40
2022-12-02T03:43:48.696Z,19.50
2022-12-02T03:46:16.800Z,22.70
2022-12-02T03:48:45.651Z,22.90
2022-12-02T03:51:15.041Z,25.50
2022-12-02T03:53:43.482Z,21.20
2022-12-02T03:56:11.782Z,24.10
2022-12-02T03:58:44.884Z,27.10
2022-12-02T04:01:13.126Z,20.10
2022-12-02T04:03:41.603Z,19.30
2022-12-02T04:06:09.865Z,23.20
2022-12-02T04:08:38.422Z,18.30
2022-12-02T04:11:06.860Z,19.60
2022-12-02T04:13:34.864Z,20.00
2022-12-02T04:16:03.101Z,24.70
2022-12-02T04:18:31.072Z,23.60
2022-12-02T04:20:59.079Z,28.00
2022-12-02T04:23:26.999Z,23.10
2022-12-02T04:25:54.914Z,28.60
2022-12-02T04:28:22.824Z,23.50
2022-12-02T04:30:50.800Z,22.50
2022-12-02T04:33:18.736Z,24.40
2022-12-02T04:35:46.721Z,21.30
2022-12-02T04:38:14.649Z,29.00
2022-12-02T04:40:42.617Z,30.80
2022-12-02T04:43:10.613Z,36.50
2022-12-02T04:45:38.529Z,26.70
2022-12-02T04:48:06.497Z,28.50
2022-12-02T04:50:34.595Z,26.90
2022-12-02T04:53:02.518Z,24.40
2022-12-02T04:55:30.448Z,24.90
2022-12-02T04:57:58.383Z,25.60
2022-12-02T05:00:26.276Z,24.30
2022-12-02T05:02:54.282Z,36.70
2022-12-02T05:05:22.156Z,29.30
2022-12-02T05:07:50.204Z,27.20
2022-12-02T05:10:18.239Z,26.20
2022-12-02T05:12:46.119Z,29.80
2022-12-02T05:15:14.916Z,29.00
2022-12-02T05:17:42.852Z,27.70
2022-12-02T05:20:11.901Z,29.90
2022-12-02T05:22:40.545Z,32.70
2022-12-02T05:25:08.959Z,34.90
2022-12-02T05:27:37.048Z,24.10
2022-12-02T05:30:07.691Z,25.70
2022-12-02T05:32:35.759Z,21.20
2022-12-02T05:35:04.228Z,27.00
2022-12-02T05:37:32.133Z,24.40
2022-12-02T05:40:00.680Z,27.80
2022-12-02T05:42:28.927Z,23.90
2022-12-02T05:45:01.829Z,35.20
2022-12-02T05:47:31.303Z,34.40
2022-12-02T05:50:01.370Z,36.10
2022-12-02T05:52:30.277Z,28.90
2022-12-02T05:55:08.010Z,28.10
2022-12-02T05:57:36.030Z,26.70
2022-12-02T06:00:17.094Z,28.90
2022-12-02T06:02:50.570Z,29.10
2022-12-02T06:05:25.586Z,30.20
2022-12-02T06:08:01.919Z,30.10
2022-12-02T06:10:32.690Z,32.20
2022-12-02T06:13:14.892Z,35.00
2022-12-02T06:15:43.112Z,23.80
2022-12-02T06:18:17.854Z,30.80
2022-12-02T06:20:51.927Z,24.50
2022-12-02T06:23:21.729Z,25.10
2022-12-02T06:25:53.425Z,29.20
2022-12-02T06:28:38.327Z,35.00
2022-12-02T06:31:24.971Z,45.20
2022-12-02T06:33:56.732Z,33.10
2022-12-02T06:36:33.614Z,31.80
2022-12-02T06:39:15.326Z,31.80
2022-12-02T06:41:43.577Z,34.60
2022-12-02T06:44:43.547Z,37.20
2022-12-02T06:47:33.241Z,44.30
2022-12-02T06:50:07.293Z,44.60
2022-12-02T06:52:42.923Z,33.40
2022-12-02T06:55:26.043Z,33.20
2022-12-02T06:57:56.028Z,33.90
2022-12-02T07:00:23.908Z,24.50
2022-12-02T07:02:51.909Z,30.40
2022-12-02T07:05:22.502Z,28.50
2022-12-02T07:07:51.984Z,34.10
2022-12-02T07:10:30.504Z,39.20
2022-12-02T07:13:07.846Z,36.70
2022-12-02T07:15:36.040Z,29.10
2022-12-02T07:18:21.902Z,25.70
2022-12-02T07:20:50.438Z,28.80
2022-12-02T07:23:26.307Z,23.60
2022-12-02T07:26:00.917Z,28.10
2022-12-02T07:28:35.500Z,25.10
2022-12-02T07:31:21.591Z,30.70
2022-12-02T07:33:50.924Z,32.20
2022-12-02T07:36:20.202Z,29.20
2022-12-02T07:41:37.453Z,27.40
2022-12-02T07:44:06.888Z,30.90
2022-12-02T07:46:34.903Z,26.40
2022-12-02T07:49:03.039Z,23.90
2022-12-02T07:51:30.934Z,34.50
2022-12-02T07:53:58.888Z,38.20
2022-12-02T07:56:26.948Z,32.70
2022-12-02T07:59:12.363Z,36.90
2022-12-02T08:01:42.166Z,30.30
2022-12-02T08:04:10.171Z,31.20
2022-12-02T08:06:40.136Z,27.00
2022-12-02T08:09:10.509Z,33.80
2022-12-02T08:11:38.866Z,36.40
2022-12-02T08:14:07.087Z,39.20
2022-12-02T08:16:35.777Z,34.50
2022-12-02T08:19:04.580Z,28.40
2022-12-02T08:21:32.836Z,26.60
2022-12-02T08:24:01.437Z,30.70
2022-12-02T08:26:29.760Z,34.50
2022-12-02T08:28:57.713Z,20.60
2022-12-02T08:31:26.226Z,27.30
2022-12-02T08:33:54.853Z,33.10
2022-12-02T08:36:23.719Z,31.00
2022-12-02T08:38:51.634Z,31.50
2022-12-02T08:41:19.602Z,22.40
2022-12-02T08:43:48.103Z,24.30
2022-12-02T08:46:16.108Z,23.40
2022-12-02T08:48:44.125Z,24.60
2022-12-02T08:51:11.984Z,17.90
2022-12-02T08:53:40.123Z,22.20
2022-12-02T08:56:08.079Z,22.20
2022-12-02T08:58:37.835Z,31.40
2022-12-02T09:01:06.200Z,21.60
2022-12-02T09:03:34.588Z,15.40
2022-12-02T09:06:02.547Z,18.20
2022-12-02T09:08:30.936Z,19.00
2022-12-02T09:10:59.286Z,20.50
2022-12-02T09:13:27.353Z,22.90
2022-12-02T09:15:55.267Z,20.90
2022-12-02T09:18:25.370Z,15.50
2022-12-02T09:20:53.391Z,24.30
2022-12-02T09:23:21.470Z,22.70
2022-12-02T09:25:49.389Z,22.20
2022-12-02T09:28:17.679Z,21.60
2022-12-02T09:30:45.573Z,18.00
2022-12-02T09:33:13.502Z,24.70
2022-12-02T09:35:41.462Z,17.90
2022-12-02T09:38:10.391Z,21.80
2022-12-02T09:40:38.789Z,25.10
2022-12-02T09:43:06.726Z,16.60
2022-12-02T09:45:34.987Z,21.30
2022-12-02T09:48:03.111Z,23.90
2022-12-02T09:50:31.064Z,26.40
2022-12-02T09:53:06.390Z,27.20
2022-12-02T09:55:37.154Z,27.50
2022-12-02T09:58:21.643Z,24.80
2022-12-02T10:00:53.172Z,23.70
2022-12-02T10:03:29.230Z,22.10
2022-12-02T10:06:02.004Z,21.60
2022-12-02T10:08:32.235Z,20.60
2022-12-02T10:11:01.016Z,20.20
2022-12-02T10:13:32.372Z,22.70
2022-12-02T10:16:02.928Z,21.00
2022-12-02T10:18:32.574Z,21.80
2022-12-02T10:21:00.445Z,21.50
2022-12-02T10:23:29.355Z,18.10
2022-12-02T10:26:13.970Z,20.40
2022-12-02T10:28:42.982Z,21.90
2022-12-02T10:31:22.784Z,19.60
2022-12-02T10:34:07.397Z,19.30
2022-12-02T10:36:41.976Z,24.40
2022-12-02T10:39:23.459Z,20.70
2022-12-02T10:42:14.031Z,23.50
2022-12-02T10:44:45.733Z,20.60
2022-12-02T10:47:25.797Z,20.20
2022-12-02T10:50:00.153Z,16.50
2022-12-02T10:52:44.048Z,19.70
2022-12-02T10:55:13.397Z,22.30
2022-12-02T10:57:44.263Z,11.80
2022-12-02T11:00:20.454Z,15.40
2022-12-02T11:02:57.790Z,18.70
2022-12-02T11:05:31.496Z,24.40
2022-12-02T11:08:04.629Z,12.30
2022-12-02T11:10:39.342Z,17.40
2022-12-02T11:13:13.152Z,18.20
2022-12-02T11:15:51.073Z,11.60
2022-12-02T11:18:25.245Z,14.50
2022-12-02T11:20:55.690Z,18.20
2022-12-02T11:23:27.434Z,19.30
2022-12-02T11:25:56.561Z,20.50
2022-12-02T11:28:27.416Z,25.50
2022-12-02T11:31:25.679Z,18.60
2022-12-02T11:33:57.107Z,18.30
2022-12-02T11:36:31.066Z,18.20
2022-12-02T11:39:08.762Z,16.40
2022-12-02T11:41:48.738Z,18.10
2022-12-02T11:44:29.362Z,24.50
2022-12-02T11:47:01.280Z,19.40
2022-12-02T11:49:41.293Z,20.70
2022-12-02T11:52:09.337Z,20.20
2022-12-02T11:55:22.390Z,15.40
2022-12-02T11:57:57.324Z,15.40
2022-12-02T12:00:38.291Z,17.70
2022-12-02T12:03:17.976Z,17.90
2022-12-02T12:06:26.695Z,14.00
2022-12-02T12:08:57.442Z,18.60
2022-12-02T12:11:35.321Z,20.30
2022-12-02T12:14:13.655Z,12.60
2022-12-02T12:16:50.427Z,23.20
2022-12-02T12:19:20.250Z,18.90
2022-12-02T12:21:55.747Z,19.00
2022-12-02T12:24:23.844Z,17.20
2022-12-02T12:27:01.107Z,17.30
2022-12-02T12:29:34.747Z,16.90
2022-12-02T12:32:03.717Z,17.30
2022-12-02T12:34:32.547Z,16.80
2022-12-02T12:37:00.665Z,18.70
2022-12-02T12:39:28.484Z,19.40
2022-12-02T12:42:01.031Z,25.90
2022-12-02T12:44:32.554Z,19.00
2022-12-02T12:47:05.577Z,19.20
2022-12-02T12:49:34.887Z,17.50
2022-12-02T12:52:03.885Z,20.50
2022-12-02T12:54:31.881Z,23.20
2022-12-02T12:56:59.800Z,17.40
2022-12-02T12:59:27.826Z,20.30
2022-12-02T13:01:55.911Z,21.70
2022-12-02T13:04:24.353Z,23.00
2022-12-02T13:06:52.343Z,23.10
2022-12-02T13:09:20.614Z,21.30
2022-12-02T13:11:48.509Z,19.60
2022-12-02T13:14:17.025Z,19.50
2022-12-02T13:16:44.936Z,19.90
2022-12-02T13:19:12.899Z,19.00
2022-12-02T13:21:40.806Z,15.90
2022-12-02T13:24:09.156Z,19.10
2022-12-02T13:26:37.050Z,19.10
2022-12-02T13:29:05.003Z,27.10
2022-12-02T13:31:33.147Z,22.80
2022-12-02T13:34:01.248Z,21.50
2022-12-02T13:36:29.165Z,17.60
2022-12-02T13:39:01.094Z,22.10
2022-12-02T13:41:32.354Z,22.40
2022-12-02T13:44:00.288Z,17.50
2022-12-02T13:46:28.234Z,21.50
2022-12-02T13:48:56.574Z,18.90
2022-12-02T13:51:24.501Z,22.10
2022-12-02T13:53:58.553Z,17.30
2022-12-02T13:56:28.113Z,14.80
2022-12-02T13:58:55.987Z,24.40
2022-12-02T14:01:24.170Z,25.60
2022-12-02T14:03:52.276Z,21.60
2022-12-02T14:06:20.371Z,17.80
2022-12-02T14:08:48.480Z,18.00
2022-12-02T14:11:19.153Z,20.50
2022-12-02T14:13:50.426Z,16.50
2022-12-02T14:16:18.775Z,22.60
2022-12-02T14:18:51.225Z,21.20
2022-12-02T14:21:23.461Z,20.00
2022-12-02T14:23:51.375Z,23.80
2022-12-02T14:26:19.352Z,30.00
2022-12-02T14:28:47.310Z,30.00
2022-12-02T14:31:23.876Z,28.80
2022-12-02T14:34:12.714Z,19.20
2022-12-02T14:36:43.673Z,21.30
2022-12-02T14:39:11.821Z,20.80
2022-12-02T14:41:39.949Z,17.00
2022-12-02T14:44:08.068Z,21.40
2022-12-02T14:46:36.536Z,23.50
2022-12-02T14:49:37.705Z,25.50
2022-12-02T14:51:52.475Z,34.90
2022-12-02T14:54:20.319Z,28.00
2022-12-02T14:56:48.185Z,21.70
2022-12-02T14:59:16.071Z,21.00
2022-12-02T15:01:44.046Z,22.40
2022-12-02T15:04:12.001Z,20.70
2022-12-02T15:06:40.097Z,22.60
2022-12-02T15:09:08.020Z,25.60
2022-12-02T15:11:35.952Z,24.30
2022-12-02T15:14:03.909Z,26.00
2022-12-02T15:16:31.928Z,27.10
2022-12-02T15:19:00.072Z,29.70
2022-12-02T15:21:27.990Z,21.90
2022-12-02T15:23:55.899Z,22.10
2022-12-02T15:26:23.841Z,21.00
2022-12-02T15:28:51.754Z,19.50
2022-12-02T15:31:19.802Z,18.50
2022-12-02T15:33:48.172Z,18.80
2022-12-02T15:36:16.518Z,21.40
2022-12-02T15:38:44.412Z,24.60
2022-12-02T15:41:12.613Z,26.80
2022-12-02T15:43:40.518Z,15.40
2022-12-02T15:46:08.421Z,25.50
2022-12-02T15:48:36.348Z,20.60
2022-12-02T15:51:04.326Z,25.10
2022-12-02T15:53:32.374Z,25.60
2022-12-02T15:56:00.386Z,17.70
2022-12-02T15:58:28.513Z,18.40
2022-12-02T16:00:56.494Z,25.80
2022-12-02T16:03:24.511Z,24.20
2022-12-02T16:05:52.371Z,18.30
2022-12-02T16:08:20.274Z,16.60
2022-12-02T16:10:49.617Z,25.60
2022-12-02T16:13:17.750Z,19.10
2022-12-02T16:15:45.617Z,16.10
2022-12-02T16:18:13.485Z,21.70
2022-12-02T16:20:41.470Z,23.10
2022-12-02T16:23:09.339Z,23.50
2022-12-02T16:25:37.207Z,25.00
2022-12-02T16:28:05.102Z,21.70
2022-12-02T16:30:33.020Z,22.30
2022-12-02T16:33:00.975Z,20.90
2022-12-02T16:35:28.880Z,22.00
2022-12-02T16:38:02.835Z,26.30
2022-12-02T16:40:32.577Z,22.50
2022-12-02T16:43:02.248Z,24.80
2022-12-02T16:45:30.484Z,23.60
2022-12-02T16:47:58.418Z,25.10
2022-12-02T16:50:26.292Z,24.30
2022-12-02T16:52:54.200Z,27.90
2022-12-02T16:55:22.196Z,23.30
2022-12-02T16:57:50.123Z,28.20
2022-12-02T17:00:18.707Z,18.90
2022-12-02T17:02:46.669Z,25.00
2022-12-02T17:05:14.759Z,27.10
2022-12-02T17:07:42.742Z,31.80
2022-12-02T17:10:11.457Z,32.20
2022-12-02T17:12:39.423Z,33.30
2022-12-02T17:15:07.906Z,25.20
2022-12-02T17:17:51.128Z,25.90
2022-12-02T17:20:19.257Z,26.80
2022-12-02T17:22:47.190Z,25.90
2022-12-02T17:25:15.260Z,23.70
2022-12-02T17:27:43.246Z,26.80
2022-12-02T17:30:12.420Z,23.70
2022-12-02T17:32:40.738Z,26.70
2022-12-02T17:35:09.387Z,26.90
2022-12-02T17:37:37.451Z,25.80
2022-12-02T17:40:06.387Z,32.00
2022-12-02T17:42:34.284Z,29.60
2022-12-02T17:45:02.345Z,25.40
2022-12-02T17:47:30.372Z,25.50
2022-12-02T17:49:58.354Z,26.50
2022-12-02T17:52:26.815Z,28.80
2022-12-02T17:54:55.171Z,19.60
2022-12-02T17:57:23.318Z,31.30
2022-12-02T17:59:51.506Z,30.70
2022-12-02T18:02:19.453Z,34.80
2022-12-02T18:04:48.294Z,41.20
2022-12-02T18:07:16.299Z,29.60
2022-12-02T18:09:44.242Z,28.80
2022-12-02T18:12:12.474Z,28.40
2022-12-02T18:14:40.432Z,27.10
2022-12-02T18:17:08.700Z,32.20
2022-12-02T18:19:36.804Z,26.20
2022-12-02T18:22:04.830Z,25.70
2022-12-02T18:24:32.729Z,24.40
2022-12-02T18:27:00.815Z,29.60
2022-12-02T18:29:28.859Z,35.90
2022-12-02T18:31:56.788Z,32.90
2022-12-02T18:34:24.688Z,37.20
2022-12-02T18:36:53.193Z,29.60
2022-12-02T18:39:21.543Z,30.70
2022-12-02T18:41:49.648Z,32.40
2022-12-02T18:44:17.531Z,17.70
2022-12-02T18:46:45.546Z,29.70
2022-12-02T18:49:13.493Z,27.10
2022-12-02T18:51:41.372Z,30.80
2022-12-02T18:54:09.457Z,28.00
2022-12-02T18:56:37.829Z,40.30
2022-12-02T18:59:06.025Z,37.40
2022-12-02T19:01:34.664Z,42.70
2022-12-02T19:04:02.903Z,28.80
2022-12-02T19:06:30.901Z,29.30
2022-12-02T19:08:59.379Z,33.00
2022-12-02T19:11:27.380Z,34.60
2022-12-02T19:13:55.348Z,24.40
2022-12-02T19:16:23.345Z,34.70
2022-12-02T19:18:51.257Z,35.00
2022-12-02T19:21:24.502Z,42.50
2022-12-02T19:23:53.230Z,44.00
2022-12-02T19:26:22.134Z,29.20
2022-12-02T19:28:50.388Z,37.20
2022-12-02T19:31:18.820Z,27.60
2022-12-02T19:33:47.051Z,26.20
2022-12-02T19:36:16.121Z,30.60
2022-12-02T19:38:46.524Z,34.80
2022-12-02T19:41:14.525Z,33.70
2022-12-02T19:43:42.404Z,32.40
2022-12-02T19:46:10.313Z,42.30
2022-12-02T19:48:38.206Z,49.40
2022-12-02T19:51:06.169Z,55.20
2022-12-02T19:53:34.100Z,35.90
2022-12-02T19:56:02.115Z,32.50
2022-12-02T19:58:29.994Z,28.50
2022-12-02T20:00:57.840Z,31.30
2022-12-02T20:03:25.837Z,47.10
2022-12-02T20:05:54.278Z,36.80
2022-12-02T20:08:22.168Z,37.80
2022-12-02T20:10:50.108Z,38.10
2022-12-02T20:13:18.058Z,49.80
2022-12-02T20:15:46.046Z,48.40
2022-12-02T20:18:14.288Z,43.30
2022-12-02T20:20:42.448Z,33.70
2022-12-02T20:23:10.494Z,39.50
2022-12-02T20:25:38.674Z,33.50
2022-12-02T20:28:06.648Z,38.40
2022-12-02T20:30:34.604Z,38.80
2022-12-02T20:33:02.432Z,37.40
2022-12-02T20:35:30.429Z,50.30
2022-12-02T20:37:58.430Z,48.00
2022-12-02T20:40:27.704Z,45.50
2022-12-02T20:42:55.627Z,42.10
2022-12-02T20:45:24.111Z,34.40
2022-12-02T20:47:52.063Z,36.10
2022-12-02T20:50:20.165Z,37.60
2022-12-02T20:52:53.478Z,36.70
2022-12-02T20:55:22.052Z,45.00
2022-12-02T20:57:50.166Z,38.20
2022-12-02T21:00:19.464Z,32.10
2022-12-02T21:02:47.810Z,37.10
2022-12-02T21:05:16.272Z,46.60
2022-12-02T21:07:44.263Z,50.80
2022-12-02T21:10:12.519Z,56.30
2022-12-02T21:12:40.504Z,49.90
2022-12-02T21:15:10.060Z,40.40
2022-12-02T21:17:38.055Z,43.50
2022-12-02T21:20:07.136Z,46.80
2022-12-02T21:22:35.056Z,39.40
2022-12-02T21:25:03.071Z,33.10
2022-12-02T21:27:31.157Z,46.20
2022-12-02T21:29:59.148Z,40.70
2022-12-02T21:32:27.005Z,41.90
2022-12-02T21:34:55.164Z,51.30
2022-12-02T21:37:23.179Z,48.90
2022-12-02T21:39:51.967Z,39.00
2022-12-02T21:42:19.848Z,42.60
2022-12-02T21:44:47.816Z,39.40
2022-12-02T21:47:15.848Z,43.00
2022-12-02T21:49:48.939Z,33.60
2022-12-02T21:52:17.781Z,40.90
2022-12-02T21:54:45.705Z,38.40
2022-12-02T21:57:13.739Z,42.10
2022-12-02T21:59:42.974Z,52.20
2022-12-02T22:02:15.837Z,54.90
2022-12-02T22:04:45.596Z,44.50
2022-12-02T22:07:32.406Z,41.10
2022-12-02T22:10:00.499Z,38.10
2022-12-02T22:12:28.440Z,33.40
2022-12-02T22:14:56.288Z,32.70
2022-12-02T22:17:24.164Z,33.60
2022-12-02T22:19:52.123Z,34.80
2022-12-02T22:22:20.525Z,25.40
2022-12-02T22:24:48.495Z,28.80
2022-12-02T22:27:16.460Z,41.90
2022-12-02T22:29:44.543Z,39.00
2022-12-02T22:32:12.554Z,41.70
2022-12-02T22:34:40.831Z,39.50
2022-12-02T22:37:09.032Z,35.20
2022-12-02T22:39:36.949Z,33.20
2022-12-02T22:42:04.956Z,35.60
2022-12-02T22:44:32.890Z,35.70
2022-12-02T22:47:00.839Z,41.60
2022-12-02T22:49:28.861Z,33.90
2022-12-02T22:51:56.839Z,37.10
2022-12-02T22:54:24.735Z,36.90
2022-12-02T22:56:52.649Z,45.30
2022-12-02T22:59:20.643Z,55.10
2022-12-02T23:01:48.552Z,43.00
2022-12-02T23:04:16.449Z,32.70
2022-12-02T23:06:44.355Z,34.40
2022-12-02T23:09:12.789Z,33.30
2022-12-02T23:11:40.852Z,42.60
2022-12-02T23:14:08.713Z,35.90
2022-12-02T23:16:36.691Z,29.60
2022-12-02T23:19:04.758Z,32.10
2022-12-02T23:21:33.115Z,42.10
2022-12-02T23:24:00.905Z,55.00
2022-12-02T23:26:28.820Z,37.80
2022-12-02T23:28:56.742Z,31.00
2022-12-02T23:31:24.724Z,33.80
2022-12-02T23:33:52.621Z,22.10
2022-12-02T23:36:20.693Z,36.30
2022-12-02T23:38:48.645Z,37.00
2022-12-02T23:41:16.581Z,36.60
2022-12-02T23:43:44.711Z,28.10
2022-12-02T23:46:13.198Z,35.30
2022-12-02T23:48:41.099Z,40.50
2022-12-02T23:51:09.167Z,37.20
2022-12-02T23:53:37.034Z,61.10
2022-12-02T23:56:05.367Z,44.50
2022-12-02T23:58:33.324Z,29.30
